Time;durP1;ratioP1;P1;durP2;ratioP2;P2;SDS_P1;SDS_P2;PMS_P1;PMS_P2;Temp;Humidity;BMP_temperature;BMP_pressure;BME280_temperature;BME280_humidity;BME280_pressure;Samples;Min_cycle;Max_cycle;Signal;HPM_P1;HPM_P2
2023/10/14 00:01:31;;;;;;;12.53;11.43;;;;;;;13.00;74.82;93230.03;5067264;28;20211;-79
2023/10/14 00:03:56;;;;;;;11.27;10.47;;;;;;;13.13;74.57;93226.75;5058223;28;20232;-78
2023/10/14 00:06:23;;;;;;;11.67;11.00;;;;;;;13.08;74.87;93226.00;5054605;28;20189;-79
2023/10/14 00:08:55;;;;;;;10.97;9.97;;;;;;;12.94;74.69;93224.03;5067914;28;20221;-79
2023/10/14 00:11:24;;;;;;;12.07;10.97;;;;;;;12.99;75.45;93220.56;5061077;28;20201;-79
2023/10/14 00:13:52;;;;;;;12.03;11.07;;;;;;;12.87;74.72;93214.94;5065829;28;20261;-79
2023/10/14 00:18:58;;;;;;;10.77;9.73;;;;;;;12.98;74.82;93205.13;5073273;28;20224;-79
2023/10/14 00:21:25;;;;;;;11.57;10.87;;;;;;;12.93;75.16;93208.59;5041794;28;20169;-79
2023/10/14 00:23:55;;;;;;;11.27;10.03;;;;;;;12.78;75.38;93198.22;5070123;28;20217;-79
2023/10/14 00:26:22;;;;;;;10.80;10.00;;;;;;;12.96;75.09;93206.16;5065162;28;20973;-78
2023/10/14 00:28:54;;;;;;;10.97;10.27;;;;;;;12.99;75.52;93207.47;5067789;28;20225;-79
2023/10/14 00:31:23;;;;;;;11.70;10.80;;;;;;;12.86;75.33;93208.09;5070070;28;20258;-79
2023/10/14 00:33:48;;;;;;;10.37;9.67;;;;;;;12.86;75.20;93195.00;5064966;28;20311;-79
2023/10/14 00:36:16;;;;;;;10.37;9.37;;;;;;;12.85;74.59;93199.50;5059805;28;20193;-79
2023/10/14 00:38:45;;;;;;;11.53;10.53;;;;;;;12.76;74.75;93202.97;5065646;28;20217;-76
2023/10/14 00:41:11;;;;;;;11.43;10.63;;;;;;;12.70;75.28;93202.22;5067642;28;20200;-79
2023/10/14 00:43:39;;;;;;;11.17;10.43;;;;;;;12.68;75.70;93209.59;5074666;28;20274;-78
2023/10/14 00:46:09;;;;;;;10.80;10.20;;;;;;;12.69;75.97;93202.50;5083821;28;20240;-79
2023/10/14 00:48:40;;;;;;;10.67;9.80;;;;;;;12.58;76.43;93203.66;5067645;28;20251;-79
2023/10/14 00:51:07;;;;;;;11.30;10.40;;;;;;;12.58;75.22;93204.44;5065575;28;20201;-79
2023/10/14 00:53:37;;;;;;;10.27;9.57;;;;;;;12.53;76.28;93199.25;5066910;28;20269;-79
2023/10/14 00:56:02;;;;;;;13.03;11.10;;;;;;;12.61;76.38;93205.72;5067939;28;20174;-79
2023/10/14 00:58:28;;;;;;;10.80;10.07;;;;;;;12.68;75.87;93187.88;5064421;28;20248;-79
2023/10/14 01:00:57;;;;;;;11.40;10.30;;;;;;;12.65;75.74;93180.56;5065453;28;20197;-78
2023/10/14 01:03:27;;;;;;;11.90;10.40;;;;;;;12.60;75.65;93181.38;5058444;28;20226;-79
2023/10/14 01:05:56;;;;;;;11.40;10.43;;;;;;;12.63;75.39;93183.47;5055966;28;20276;-79
2023/10/14 01:08:24;;;;;;;11.07;10.30;;;;;;;12.60;75.45;93177.97;5066514;28;20232;-78
2023/10/14 01:10:50;;;;;;;10.33;9.63;;;;;;;12.53;75.74;93180.91;5065225;28;20205;-79
2023/10/14 01:13:21;;;;;;;11.33;10.37;;;;;;;12.51;76.01;93172.53;5061771;28;20229;-77
2023/10/14 01:15:49;;;;;;;11.57;10.50;;;;;;;12.51;76.25;93177.78;5065747;28;20192;-78
2023/10/14 01:18:14;;;;;;;10.03;9.33;;;;;;;12.51;76.19;93164.69;5068295;28;20228;-79
2023/10/14 01:20:43;;;;;;;10.53;9.83;;;;;;;12.49;76.38;93168.66;5053901;28;20188;-78
2023/10/14 01:23:14;;;;;;;11.17;10.33;;;;;;;12.37;76.77;93165.63;5065321;28;20221;-78
2023/10/14 01:25:53;;;;;;;10.40;9.70;;;;;;;12.29;77.71;93169.63;5052222;28;20175;-78
2023/10/14 01:28:29;;;;;;;10.50;9.90;;;;;;;12.32;76.54;93163.03;5049882;28;20297;-75
2023/10/14 01:31:12;;;;;;;10.30;9.73;;;;;;;12.43;75.89;93165.31;5060524;28;20214;-78
2023/10/14 01:33:37;;;;;;;10.17;9.67;;;;;;;12.36;76.37;93161.44;5062306;28;20288;-78
2023/10/14 01:36:04;;;;;;;10.87;9.93;;;;;;;12.22;77.35;93163.91;5059131;28;20193;-78
2023/10/14 01:38:31;;;;;;;11.50;10.60;;;;;;;12.21;76.80;93158.94;5041230;28;20224;-78
2023/10/14 01:40:57;;;;;;;11.47;10.57;;;;;;;12.20;76.75;93157.41;5051263;28;20196;-79
2023/10/14 01:43:24;;;;;;;11.43;10.63;;;;;;;12.17;76.68;93160.56;5044467;28;20234;-78
2023/10/14 01:48:25;;;;;;;10.47;9.57;;;;;;;12.11;76.84;93153.81;5054217;28;20225;-82
2023/10/14 01:50:55;;;;;;;10.40;9.37;;;;;;;12.11;76.63;93157.19;5058334;28;20205;-75
2023/10/14 01:53:23;;;;;;;10.43;9.73;;;;;;;12.05;77.38;93154.88;5045886;28;20241;-77
2023/10/14 01:55:54;;;;;;;11.00;9.90;;;;;;;11.82;79.23;93150.34;5050684;28;20184;-76
2023/10/14 01:58:32;;;;;;;11.23;10.33;;;;;;;11.99;77.30;93158.59;5050219;28;20221;-75
2023/10/14 02:03:46;;;;;;;11.00;10.20;;;;;;;11.98;77.41;93147.38;5048520;28;20250;-76
2023/10/14 02:06:30;;;;;;;10.40;9.70;;;;;;;11.84;78.67;93151.66;5050371;28;20243;-76
2023/10/14 02:09:00;;;;;;;10.67;9.63;;;;;;;11.84;78.13;93141.19;5049998;28;20229;-74
2023/10/14 02:11:35;;;;;;;10.97;10.27;;;;;;;11.95;77.62;93153.16;5049998;28;20201;-75
2023/10/14 02:14:09;;;;;;;11.93;11.03;;;;;;;11.90;77.58;93147.94;5037672;28;20227;-75
2023/10/14 02:16:41;;;;;;;11.30;10.30;;;;;;;12.04;78.05;93148.09;5050134;28;20182;-76
2023/10/14 02:19:19;;;;;;;10.97;10.13;;;;;;;12.05;77.64;93144.41;5048193;28;20224;-76
2023/10/14 02:21:47;;;;;;;11.13;10.30;;;;;;;11.99;77.61;93154.16;5041282;28;20230;-75
2023/10/14 02:24:12;;;;;;;11.27;10.47;;;;;;;11.95;78.31;93141.88;5047023;28;20220;-75
2023/10/14 02:26:38;;;;;;;11.17;10.37;;;;;;;12.06;77.55;93148.59;5049187;28;20185;-76
2023/10/14 02:29:10;;;;;;;9.87;9.30;;;;;;;11.93;77.50;93138.75;5048607;28;20242;-76
2023/10/14 02:31:35;;;;;;;11.13;10.30;;;;;;;11.86;77.92;93138.28;5031389;28;20346;-76
2023/10/14 02:34:09;;;;;;;11.23;10.33;;;;;;;11.76;78.38;93139.16;5049374;28;20213;-76
2023/10/14 02:36:36;;;;;;;11.03;10.23;;;;;;;11.81;78.06;93136.50;5048976;28;20163;-76
2023/10/14 02:39:14;;;;;;;11.33;10.53;;;;;;;11.90;77.49;93128.84;5049689;28;20229;-73
2023/10/14 02:41:43;;;;;;;10.73;10.03;;;;;;;11.94;76.81;93129.88;5040777;28;20234;-75
2023/10/14 02:46:42;;;;;;;11.53;10.53;;;;;;;11.89;78.27;93130.66;5045684;28;20230;-75
2023/10/14 02:49:09;;;;;;;11.50;10.37;;;;;;;12.01;78.13;93136.34;5047487;28;20259;-75
2023/10/14 02:51:42;;;;;;;11.50;10.60;;;;;;;12.15;77.66;93136.50;5049438;28;20213;-75
2023/10/14 02:54:26;;;;;;;10.90;10.03;;;;;;;11.98;78.21;93136.09;5049188;28;20222;-76
2023/10/14 02:56:59;;;;;;;11.17;10.30;;;;;;;11.90;78.50;93129.63;5048899;28;20189;-76
2023/10/14 02:59:36;;;;;;;10.70;9.93;;;;;;;11.80;78.53;93134.16;5037923;28;20225;-75
2023/10/14 03:07:30;;;;;;;12.00;10.90;;;;;;;11.68;78.27;93115.38;5052008;28;20878;-76
2023/10/14 03:12:48;;;;;;;10.70;9.63;;;;;;;11.64;79.45;93112.56;5041802;28;20225;-77
2023/10/14 03:15:22;;;;;;;11.07;10.40;;;;;;;11.79;79.04;93128.13;5037332;28;20182;-76
2023/10/14 03:18:01;;;;;;;11.10;10.23;;;;;;;11.75;78.66;93131.56;5040523;28;20183;-90
2023/10/14 03:20:36;;;;;;;10.30;9.67;;;;;;;11.64;79.30;93130.06;5053760;28;20935;-80
2023/10/14 03:23:17;;;;;;;11.17;10.37;;;;;;;11.76;79.03;93135.75;5046653;28;20231;-80
2023/10/14 03:25:44;;;;;;;11.07;10.20;;;;;;;11.66;80.44;93127.97;5042597;28;20251;-83
2023/10/14 03:28:14;;;;;;;11.00;10.30;;;;;;;11.75;79.90;93127.09;5042043;28;20229;-78
2023/10/14 03:30:45;;;;;;;11.43;10.63;;;;;;;11.69;79.82;93127.44;5045971;28;20296;-77
2023/10/14 03:33:20;;;;;;;12.47;11.43;;;;;;;11.71;80.12;93136.56;5046852;28;20233;-78
2023/10/14 03:35:57;;;;;;;12.30;11.37;;;;;;;11.73;79.79;93124.00;5048123;28;20184;-78
2023/10/14 03:38:25;;;;;;;11.63;10.77;;;;;;;11.59;80.08;93122.22;5047804;28;20235;-79
2023/10/14 03:41:03;;;;;;;10.40;9.63;;;;;;;11.55;79.93;93121.22;5047460;28;20196;-78
2023/10/14 03:43:44;;;;;;;20.77;12.00;;;;;;;11.38;81.99;93127.59;5046730;28;20222;-78
2023/10/14 03:46:14;;;;;;;12.87;11.67;;;;;;;11.40;82.33;93135.16;5044453;28;20222;-78
2023/10/14 03:48:47;;;;;;;12.27;11.27;;;;;;;11.33;83.16;93114.53;5041522;28;20266;-78
2023/10/14 03:51:25;;;;;;;12.10;11.10;;;;;;;11.39;81.73;93121.28;5044972;28;20228;-79
2023/10/14 03:53:52;;;;;;;11.73;10.87;;;;;;;11.49;81.75;93119.69;5046014;28;20255;-79
2023/10/14 03:56:24;;;;;;;12.57;11.53;;;;;;;11.49;81.76;93124.91;5042469;28;20179;-79
2023/10/14 03:58:55;;;;;;;11.57;10.63;;;;;;;11.37;83.11;93112.16;5041291;28;20219;-77
2023/10/14 04:01:23;;;;;;;12.40;10.93;;;;;;;11.38;83.19;93112.97;5048836;28;20196;-80
2023/10/14 04:03:52;;;;;;;11.47;10.30;;;;;;;11.22;82.25;93107.78;5049643;28;20226;-79
2023/10/14 04:06:19;;;;;;;11.67;10.47;;;;;;;11.35;83.42;93101.97;5046359;28;20200;-79
2023/10/14 04:08:47;;;;;;;12.00;10.70;;;;;;;11.49;82.85;93110.00;5040794;28;20226;-79
2023/10/14 04:11:27;;;;;;;11.37;10.57;;;;;;;11.24;84.06;93102.28;5045114;28;20241;-77
2023/10/14 04:14:02;;;;;;;11.60;10.80;;;;;;;11.17;84.25;93107.81;5048083;28;20300;-79
2023/10/14 04:16:36;;;;;;;11.03;10.07;;;;;;;11.29;82.44;93097.84;5034509;28;20174;-79
2023/10/14 04:19:17;;;;;;;12.47;10.53;;;;;;;11.29;82.29;93103.06;5046001;28;20218;-80
2023/10/14 04:21:52;;;;;;;11.03;10.33;;;;;;;11.19;82.41;93108.34;5047890;28;20233;-81
2023/10/14 04:26:44;;;;;;;12.13;10.97;;;;;;;11.15;84.11;93098.69;5047994;28;20205;-82
2023/10/14 04:29:17;;;;;;;11.40;10.27;;;;;;;11.19;84.04;93097.13;5047281;28;20211;-85
2023/10/14 04:31:54;;;;;;;11.47;10.57;;;;;;;11.28;83.62;93096.25;5044613;28;20219;-80
2023/10/14 04:34:22;;;;;;;12.50;11.53;;;;;;;11.24;84.65;93099.69;5037313;28;20990;-90
2023/10/14 04:36:54;;;;;;;12.37;10.93;;;;;;;11.08;84.99;93085.91;5047519;28;20290;-84
2023/10/14 04:39:26;;;;;;;12.50;10.67;;;;;;;11.20;83.51;93099.47;5047802;28;20240;-81
2023/10/14 04:44:44;;;;;;;11.97;10.87;;;;;;;11.12;85.20;93091.41;5039871;28;20280;-82
2023/10/14 04:47:19;;;;;;;12.87;11.60;;;;;;;11.10;84.83;93089.06;5033476;28;20255;-88
2023/10/14 04:49:51;;;;;;;11.53;10.50;;;;;;;11.17;85.09;93110.44;5040324;28;20386;-86
2023/10/14 04:52:18;;;;;;;11.17;10.47;;;;;;;11.30;83.68;93109.84;5048583;28;20224;-83
2023/10/14 04:57:40;;;;;;;11.00;10.30;;;;;;;11.25;82.82;93104.63;5033351;28;20206;-82
2023/10/14 05:00:19;;;;;;;11.63;10.57;;;;;;;11.32;82.84;93112.97;5073337;28;21294;-84
2023/10/14 05:02:45;;;;;;;11.57;10.67;;;;;;;11.21;84.36;93097.63;5071750;28;20183;-87
2023/10/14 05:05:10;;;;;;;11.33;10.40;;;;;;;11.41;84.34;93109.81;5074307;28;20184;-89
2023/10/14 05:07:36;;;;;;;11.43;10.43;;;;;;;11.39;83.34;93097.75;5072455;28;20211;-95
2023/10/14 05:10:09;;;;;;;11.70;10.70;;;;;;;11.58;82.91;93110.22;5062692;28;20281;-86
2023/10/14 05:12:40;;;;;;;12.30;11.27;;;;;;;11.55;83.26;93092.47;5073706;28;20437;-85
2023/10/14 05:15:19;;;;;;;11.87;10.77;;;;;;;11.62;83.44;93100.75;5070711;28;20200;-83
2023/10/14 05:17:49;;;;;;;11.80;10.63;;;;;;;11.56;84.77;93104.47;5068092;28;20185;-87
2023/10/14 05:20:27;;;;;;;13.17;10.97;;;;;;;11.68;84.99;93110.16;5070947;28;20194;-87
2023/10/14 05:22:52;;;;;;;11.67;10.47;;;;;;;11.71;84.13;93107.00;5066954;28;20201;-84
2023/10/14 05:25:27;;;;;;;11.67;10.63;;;;;;;11.81;83.50;93112.16;5070545;28;20189;-84
2023/10/14 05:27:58;;;;;;;11.43;10.50;;;;;;;11.92;83.36;93118.88;5082359;28;20184;-84
2023/10/14 05:30:32;;;;;;;11.67;10.73;;;;;;;11.82;83.71;93106.66;5058902;28;20190;-85
2023/10/14 05:33:06;;;;;;;14.50;11.50;;;;;;;12.00;83.61;93124.28;5075943;28;20254;-84
2023/10/14 05:35:38;;;;;;;16.57;10.80;;;;;;;12.15;82.35;93129.44;5057848;28;20201;-86
2023/10/14 05:38:09;;;;;;;14.77;12.47;;;;;;;12.19;81.69;93121.78;5065032;28;20290;-85
2023/10/14 05:40:39;;;;;;;12.37;11.53;;;;;;;12.27;81.74;93131.66;5038908;28;20181;-83
2023/10/14 05:43:08;;;;;;;14.07;11.83;;;;;;;12.16;82.37;93111.88;5049353;28;20230;-82
2023/10/14 05:45:35;;;;;;;13.23;11.93;;;;;;;12.35;82.43;93139.72;5050127;28;20217;-85
2023/10/14 05:48:03;;;;;;;11.03;10.30;;;;;;;12.52;80.37;93136.66;5045492;28;20222;-88
2023/10/14 05:50:29;;;;;;;12.60;11.07;;;;;;;12.60;77.93;93147.34;5041539;28;20197;-86
2023/10/14 05:52:55;;;;;;;12.10;10.77;;;;;;;12.74;77.12;93142.22;5035202;28;20257;-85
2023/10/14 05:55:20;;;;;;;13.57;12.30;;;;;;;12.86;77.73;93143.38;5046551;28;20201;-83
2023/10/14 05:57:47;;;;;;;13.07;11.63;;;;;;;12.96;77.79;93143.25;5047398;28;20265;-88
2023/10/14 06:00:23;;;;;;;12.27;11.00;;;;;;;13.11;76.90;93142.34;5039562;28;20178;-77
2023/10/14 06:02:51;;;;;;;11.97;11.03;;;;;;;13.23;76.78;93141.94;5048764;28;20192;-78
2023/10/14 06:05:17;;;;;;;13.80;11.50;;;;;;;13.30;76.92;93148.41;5045648;28;20183;-78
2023/10/14 06:07:46;;;;;;;11.87;10.90;;;;;;;13.36;77.11;93143.88;5047761;28;20186;-76
2023/10/14 06:10:13;;;;;;;12.43;11.13;;;;;;;13.28;78.20;93149.72;5049046;28;20201;-77
2023/10/14 06:12:39;;;;;;;12.43;10.67;;;;;;;13.41;77.63;93149.06;5040010;28;20218;-76
2023/10/14 06:15:09;;;;;;;12.83;11.73;;;;;;;13.47;77.29;93142.69;5047946;28;20205;-75
2023/10/14 06:17:38;;;;;;;14.00;11.50;;;;;;;13.49;77.24;93151.84;5046241;28;20221;-76
2023/10/14 06:20:07;;;;;;;13.13;11.93;;;;;;;13.54;76.10;93159.63;5058496;28;20218;-77
2023/10/14 06:22:33;;;;;;;14.30;11.10;;;;;;;13.55;76.32;93150.72;5061279;28;20233;-75
2023/10/14 06:24:58;;;;;;;16.37;11.97;;;;;;;13.80;74.93;93152.19;5065088;28;20236;-76
2023/10/14 06:27:24;;;;;;;14.90;11.20;;;;;;;13.77;74.75;93145.69;5068611;28;20185;-75
2023/10/14 06:29:50;;;;;;;12.53;11.27;;;;;;;13.76;75.05;93148.59;5068862;28;20217;-76
2023/10/14 06:32:16;;;;;;;15.43;11.80;;;;;;;13.77;74.44;93139.66;5068153;28;20277;-76
2023/10/14 06:34:44;;;;;;;13.20;11.87;;;;;;;13.87;74.23;93148.16;5046758;28;20221;-76
2023/10/14 06:37:11;;;;;;;15.33;11.27;;;;;;;13.94;73.89;93143.34;5042019;28;20185;-76
2023/10/14 06:39:39;;;;;;;12.33;11.23;;;;;;;14.29;72.31;93150.69;5046551;28;20210;-77
2023/10/14 06:42:05;;;;;;;12.70;11.50;;;;;;;14.46;71.18;93132.53;5046981;28;20225;-89
2023/10/14 06:44:32;;;;;;;13.13;12.00;;;;;;;14.41;72.49;93140.47;5046503;28;20225;-77
2023/10/14 06:46:58;;;;;;;12.23;10.73;;;;;;;14.41;72.58;93139.72;5040086;28;20226;-84
2023/10/14 06:49:32;;;;;;;15.40;11.03;;;;;;;14.41;72.16;93137.09;5041906;28;20221;-78
2023/10/14 06:52:00;;;;;;;13.97;11.47;;;;;;;14.52;72.18;93141.88;5047337;28;20206;-78
2023/10/14 06:54:26;;;;;;;12.47;11.27;;;;;;;14.81;71.25;93143.47;5046710;28;20218;-78
2023/10/14 06:56:54;;;;;;;14.57;12.53;;;;;;;14.92;70.95;93143.00;5047111;28;20258;-76
2023/10/14 06:59:20;;;;;;;16.90;12.20;;;;;;;15.03;70.05;93152.28;5046519;28;20234;-76
2023/10/14 07:01:46;;;;;;;13.90;12.50;;;;;;;15.16;69.87;93142.81;5043969;28;20178;-77
2023/10/14 07:04:12;;;;;;;12.27;11.10;;;;;;;15.26;68.95;93153.13;5040213;28;20253;-86
2023/10/14 07:06:38;;;;;;;14.50;11.80;;;;;;;15.23;69.21;93143.19;5048866;28;20257;-76
2023/10/14 07:09:16;;;;;;;14.93;12.43;;;;;;;15.30;68.78;93138.34;5047853;28;20222;-86
2023/10/14 07:11:42;;;;;;;14.33;11.40;;;;;;;15.47;68.35;93143.81;5046835;28;20742;-74
2023/10/14 07:14:08;;;;;;;24.30;12.40;;;;;;;15.59;68.13;93146.69;5038079;28;20241;-77
2023/10/14 07:16:35;;;;;;;20.17;12.33;;;;;;;15.13;70.95;93138.16;5048043;28;20185;-77
2023/10/14 07:19:00;;;;;;;22.03;13.07;;;;;;;15.24;70.47;93132.38;5045953;28;20249;-87
2023/10/14 07:21:26;;;;;;;22.73;13.13;;;;;;;15.74;68.42;93135.84;5045299;28;20234;-81
2023/10/14 07:23:51;;;;;;;12.97;11.90;;;;;;;15.98;67.41;93139.00;5047603;28;20222;-83
2023/10/14 07:26:17;;;;;;;14.90;12.03;;;;;;;16.21;66.23;93137.91;5047721;28;20253;-80
2023/10/14 07:28:43;;;;;;;14.40;12.70;;;;;;;16.16;66.38;93127.50;5034934;28;20218;-83
2023/10/14 07:31:12;;;;;;;17.83;12.47;;;;;;;16.35;65.71;93140.47;5047032;28;20240;-80
2023/10/14 07:33:39;;;;;;;17.80;12.13;;;;;;;16.53;65.13;93139.56;5046133;28;20233;-83
2023/10/14 07:36:06;;;;;;;14.17;12.30;;;;;;;16.22;66.71;93134.19;5048017;28;20911;-75
2023/10/14 07:38:35;;;;;;;24.00;13.60;;;;;;;16.41;66.29;93132.16;5048700;28;20654;-74
2023/10/14 07:41:01;;;;;;;16.77;13.27;;;;;;;16.31;67.27;93131.63;5049139;28;20189;-75
2023/10/14 07:43:27;;;;;;;19.70;13.67;;;;;;;16.53;66.01;93132.41;5052021;28;20225;-78
2023/10/14 07:45:53;;;;;;;21.17;13.83;;;;;;;16.31;66.42;93126.38;5060530;28;20252;-76
2023/10/14 07:48:19;;;;;;;25.13;13.83;;;;;;;16.80;63.83;93124.34;5058851;28;20243;-75
2023/10/14 07:50:47;;;;;;;23.63;13.63;;;;;;;16.55;64.51;93111.81;5068219;28;20217;-78
2023/10/14 07:53:13;;;;;;;17.83;14.27;;;;;;;16.94;63.72;93119.75;5067152;28;20229;-77
2023/10/14 07:55:48;;;;;;;19.27;13.73;;;;;;;16.97;62.90;93113.88;5067844;28;20185;-76
2023/10/14 07:58:16;;;;;;;18.07;13.33;;;;;;;16.98;63.89;93122.56;5056838;28;20229;-76
2023/10/14 08:00:52;;;;;;;24.73;12.93;;;;;;;17.21;62.12;93114.25;5066054;28;20200;-77
2023/10/14 08:03:25;;;;;;;21.10;14.17;;;;;;;17.30;62.00;93112.44;5057055;28;20311;-75
2023/10/14 08:05:53;;;;;;;20.80;13.10;;;;;;;17.33;61.87;93111.81;5061118;28;20304;-76
2023/10/14 08:08:20;;;;;;;29.03;14.87;;;;;;;17.33;61.19;93114.44;5060713;28;20466;-80
2023/10/14 08:10:47;;;;;;;21.37;13.27;;;;;;;17.00;62.79;93110.63;5062177;28;20201;-76
2023/10/14 08:13:13;;;;;;;21.10;13.10;;;;;;;17.33;62.13;93111.81;5067329;28;20251;-79
2023/10/14 08:15:42;;;;;;;21.77;13.87;;;;;;;17.48;61.76;93113.25;5057650;28;20248;-75
2023/10/14 08:18:08;;;;;;;16.17;13.47;;;;;;;17.33;61.36;93111.81;5064596;28;20232;-77
2023/10/14 08:20:35;;;;;;;25.30;15.00;;;;;;;17.50;60.82;93108.44;5065595;28;20200;-75
2023/10/14 08:23:02;;;;;;;19.60;13.27;;;;;;;17.32;61.91;93106.84;5065173;28;20255;-75
2023/10/14 08:25:30;;;;;;;14.87;12.50;;;;;;;17.63;60.92;93098.84;5062002;28;20224;-76
2023/10/14 08:27:57;;;;;;;14.80;13.30;;;;;;;17.90;59.40;93103.84;5067310;28;20200;-78
2023/10/14 08:30:32;;;;;;;14.73;12.27;;;;;;;17.88;59.90;93096.22;5069113;28;20185;-78
2023/10/14 08:32:58;;;;;;;24.60;12.90;;;;;;;17.82;59.93;93092.16;5070513;28;20300;-77
2023/10/14 08:35:27;;;;;;;17.20;13.40;;;;;;;18.10;58.92;93097.91;5068055;28;20212;-78
2023/10/14 08:37:55;;;;;;;13.60;12.27;;;;;;;18.00;58.94;93085.00;5070742;28;20186;-80
2023/10/14 08:40:25;;;;;;;24.13;15.53;;;;;;;18.26;57.99;93089.19;5070568;28;20197;-79
2023/10/14 08:42:51;;;;;;;16.63;10.90;;;;;;;18.19;58.79;93086.25;5049964;28;20189;-81
2023/10/14 08:45:22;;;;;;;22.00;11.93;;;;;;;18.21;58.97;93094.63;5061242;28;20234;-82
2023/10/14 08:47:52;;;;;;;20.27;11.70;;;;;;;18.41;59.03;93086.06;5066458;28;20178;-76
2023/10/14 08:50:24;;;;;;;14.93;11.87;;;;;;;18.58;57.31;93067.53;5069262;28;20194;-81
2023/10/14 08:52:56;;;;;;;15.43;11.67;;;;;;;18.72;56.88;93078.69;5069592;28;20194;-79
2023/10/14 08:55:22;;;;;;;16.77;11.30;;;;;;;18.60;57.85;93067.22;5062727;28;20192;-81
2023/10/14 08:57:49;;;;;;;16.30;11.27;;;;;;;18.65;58.06;93073.13;5069221;28;20196;-81
2023/10/14 09:00:19;;;;;;;18.00;11.57;;;;;;;19.01;56.19;93073.44;5067952;28;20197;-79
2023/10/14 09:02:49;;;;;;;19.83;13.10;;;;;;;19.16;55.70;93069.47;5068828;28;20199;-78
2023/10/14 09:05:16;;;;;;;14.10;12.43;;;;;;;18.78;56.49;93066.06;5059375;28;20246;-77
2023/10/14 09:07:46;;;;;;;23.97;12.73;;;;;;;18.87;56.42;93072.09;5067778;28;20253;-78
2023/10/14 09:10:12;;;;;;;17.93;12.30;;;;;;;18.95;56.42;93069.44;5061613;28;20190;-79
2023/10/14 09:12:39;;;;;;;16.07;13.27;;;;;;;19.18;55.15;93059.34;5058399;28;20215;-76
2023/10/14 09:15:05;;;;;;;17.37;12.47;;;;;;;19.38;54.67;93071.88;5067219;28;20194;-76
2023/10/14 09:17:30;;;;;;;18.23;11.60;;;;;;;19.31;55.05;93066.31;5067087;28;20191;-73
2023/10/14 09:19:56;;;;;;;14.93;11.43;;;;;;;19.31;55.21;93058.38;5066811;28;20215;-75
2023/10/14 09:22:27;;;;;;;14.10;11.90;;;;;;;19.53;54.20;93060.72;5077364;28;20284;-75
2023/10/14 09:24:59;;;;;;;17.47;11.77;;;;;;;19.63;54.79;93055.03;5067051;28;20295;-74
2023/10/14 09:27:30;;;;;;;16.60;11.43;;;;;;;19.77;53.32;93052.91;5063224;28;20184;-76
2023/10/14 09:29:57;;;;;;;12.17;10.90;;;;;;;19.78;52.49;93051.78;5069788;28;20267;-75
2023/10/14 09:32:23;;;;;;;21.13;12.00;;;;;;;19.84;52.17;93042.56;5066804;28;20278;-78
2023/10/14 09:34:51;;;;;;;15.55;12.55;;;;;;;19.85;53.11;93040.69;5065448;28;20503;-80
2023/10/14 09:37:17;;;;;;;18.13;12.53;;;;;;;20.06;51.39;93042.19;5059707;28;20236;-76
2023/10/14 09:39:48;;;;;;;17.37;12.33;;;;;;;19.84;52.51;93033.84;5069423;28;20225;-76
2023/10/14 09:42:17;;;;;;;18.30;11.10;;;;;;;19.71;53.18;93021.63;5064880;28;20192;-76
2023/10/14 09:44:43;;;;;;;12.60;11.30;;;;;;;19.89;53.00;93026.44;5069839;28;20218;-76
2023/10/14 09:47:22;;;;;;;14.00;10.90;;;;;;;20.17;51.58;93024.81;5067578;28;20185;-76
2023/10/14 09:49:49;;;;;;;12.60;11.23;;;;;;;20.37;49.74;93016.03;5070828;28;20233;-76
2023/10/14 09:52:17;;;;;;;16.60;12.63;;;;;;;20.45;50.13;93012.50;5077949;28;20273;-79
2023/10/14 09:54:42;;;;;;;15.97;12.10;;;;;;;20.66;49.30;93007.13;5067403;28;20221;-76
2023/10/14 09:57:12;;;;;;;14.40;12.07;;;;;;;20.59;49.34;92998.97;5069758;28;20192;-76
2023/10/14 09:59:41;;;;;;;24.07;11.90;;;;;;;20.69;49.19;92990.56;5067033;28;20216;-77
2023/10/14 10:02:09;;;;;;;18.50;11.18;;;;;;;20.54;49.52;92984.03;5069255;28;20196;-77
2023/10/14 10:04:40;;;;;;;16.00;10.80;;;;;;;20.52;48.22;92991.53;5069615;28;20217;-76
2023/10/14 10:07:37;;;;;;;11.13;10.00;;;;;;;20.48;47.56;92984.56;5069381;28;20185;-76
2023/10/14 10:10:18;;;;;;;14.00;10.35;;;;;;;20.53;48.34;92971.06;5063528;28;20472;-77
2023/10/14 10:12:52;;;;;;;10.93;9.93;;;;;;;20.51;48.01;92968.00;5068875;28;20204;-77
2023/10/14 10:15:19;;;;;;;14.30;10.18;;;;;;;20.54;47.05;92967.34;5074823;28;20226;-79
2023/10/14 10:17:54;;;;;;;11.13;10.18;;;;;;;20.70;47.73;92961.03;5068980;28;20233;-76
2023/10/14 10:20:26;;;;;;;12.15;10.50;;;;;;;20.64;47.21;92951.75;5069222;28;20248;-77
2023/10/14 10:22:55;;;;;;;13.43;11.98;;;;;;;20.98;47.27;92955.84;5070342;28;20200;-75
2023/10/14 10:25:22;;;;;;;12.02;10.85;;;;;;;21.22;46.74;92957.69;5069221;28;20220;-77
2023/10/14 10:27:49;;;;;;;15.48;10.27;;;;;;;21.18;46.40;92943.56;5068256;28;20194;-75
2023/10/14 10:30:17;;;;;;;15.02;11.38;;;;;;;21.06;46.48;92946.22;5067157;28;20190;-76
2023/10/14 10:32:48;;;;;;;11.20;10.07;;;;;;;21.06;46.97;92935.63;5069998;28;20242;-76
2023/10/14 10:35:16;;;;;;;12.60;10.65;;;;;;;21.21;46.31;92938.34;5068920;28;20215;-76
2023/10/14 10:37:41;;;;;;;11.13;9.95;;;;;;;21.41;45.70;92929.44;5067688;28;20194;-75
2023/10/14 10:40:11;;;;;;;10.95;9.90;;;;;;;21.67;44.99;92923.69;5068101;28;20180;-76
2023/10/14 10:42:47;;;;;;;12.38;11.00;;;;;;;21.38;45.51;92908.88;5064006;28;20197;-72
2023/10/14 10:45:21;;;;;;;12.00;11.07;;;;;;;21.20;46.96;92917.44;5069607;28;20232;-78
2023/10/14 10:47:56;;;;;;;12.20;11.00;;;;;;;21.29;45.43;92918.06;5066600;28;20198;-77
2023/10/14 10:50:25;;;;;;;14.98;10.55;;;;;;;21.36;46.22;92908.41;5069699;28;20214;-76
2023/10/14 10:53:16;;;;;;;21.02;11.27;;;;;;;21.59;45.15;92909.44;5066513;28;20199;-76
2023/10/14 10:55:48;;;;;;;11.68;10.57;;;;;;;21.67;45.48;92899.78;5067950;28;20232;-75
2023/10/14 10:58:16;;;;;;;13.50;10.15;;;;;;;21.99;44.22;92904.84;5067076;28;20232;-76
2023/10/14 11:00:46;;;;;;;12.20;10.77;;;;;;;22.02;42.73;92898.84;5069577;28;20181;-74
2023/10/14 11:03:16;;;;;;;11.80;10.45;;;;;;;21.65;43.61;92891.38;5058807;28;20245;-76
2023/10/14 11:05:43;;;;;;;13.88;10.45;;;;;;;21.68;43.71;92883.47;5070112;28;20195;-75
2023/10/14 11:08:09;;;;;;;12.40;11.18;;;;;;;21.81;44.33;92886.88;5064371;28;20250;-76
2023/10/14 11:10:41;;;;;;;12.18;10.60;;;;;;;22.11;43.80;92882.72;5054357;28;20275;-76
2023/10/14 11:13:11;;;;;;;11.30;10.20;;;;;;;22.29;42.79;92885.84;5066996;28;20223;-75
2023/10/14 11:15:37;;;;;;;14.48;10.13;;;;;;;22.15;43.15;92870.28;5057872;28;20193;-76
2023/10/14 11:18:04;;;;;;;11.80;10.60;;;;;;;22.28;43.07;92871.75;5070071;28;20251;-76
2023/10/14 11:20:35;;;;;;;14.40;10.63;;;;;;;22.27;43.29;92863.00;5067748;28;20212;-75
2023/10/14 11:23:03;;;;;;;11.35;10.32;;;;;;;22.36;42.09;92870.81;5070639;28;20233;-75
2023/10/14 11:25:30;;;;;;;11.40;10.23;;;;;;;22.00;43.40;92863.06;5069805;28;20229;-76
2023/10/14 11:27:57;;;;;;;11.80;10.68;;;;;;;21.93;43.27;92868.97;5068614;28;20195;-76
2023/10/14 11:30:28;;;;;;;16.05;11.00;;;;;;;21.92;44.28;92864.00;5068195;28;20175;-76
2023/10/14 11:32:58;;;;;;;11.40;10.43;;;;;;;22.04;44.86;92861.25;5068687;28;20313;-75
2023/10/14 11:35:28;;;;;;;11.68;10.50;;;;;;;22.31;42.62;92841.00;5061699;28;20185;-76
2023/10/14 11:38:02;;;;;;;11.00;10.05;;;;;;;22.24;43.02;92849.63;5061523;28;20189;-76
2023/10/14 11:40:40;;;;;;;11.48;10.38;;;;;;;22.50;41.91;92852.50;5058570;28;20177;-76
2023/10/14 11:43:06;;;;;;;14.30;11.10;;;;;;;22.60;41.38;92851.25;5064324;28;20259;-76
2023/10/14 11:45:32;;;;;;;13.18;10.57;;;;;;;22.38;42.27;92841.97;5068637;28;20234;-75
2023/10/14 11:48:00;;;;;;;13.18;11.10;;;;;;;22.42;42.10;92831.38;5067518;28;20238;-76
2023/10/14 11:50:26;;;;;;;12.50;11.07;;;;;;;22.16;42.19;92838.00;5069636;28;20169;-77
2023/10/14 11:52:56;;;;;;;12.80;10.75;;;;;;;21.89;42.35;92835.44;5067610;28;20211;-76
2023/10/14 11:55:24;;;;;;;12.18;10.60;;;;;;;22.14;42.99;92832.28;5068422;28;20204;-76